Time;durP1;ratioP1;P1;durP2;ratioP2;P2;SDS_P1;SDS_P2;PMS_P1;PMS_P2;Temp;Humidity;BMP_temperature;BMP_pressure;BME280_temperature;BME280_humidity;BME280_pressure;Samples;Min_cycle;Max_cycle;Signal;HPM_P1;HPM_P2
2024/01/30 00:00:52;;;;;;;19.58;12.80;;;;;;;5.98;62.54;97967.94;5012628;28;20042;-81
2024/01/30 00:03:21;;;;;;;18.05;12.63;;;;;;;5.98;62.49;97966.19;5012147;28;20426;-80
2024/01/30 00:05:49;;;;;;;14.55;10.75;;;;;;;5.98;62.08;97968.78;5012503;28;20050;-81
2024/01/30 00:08:16;;;;;;;16.83;11.70;;;;;;;5.98;62.27;97970.53;5012420;28;20053;-81
2024/01/30 00:10:44;;;;;;;15.85;12.05;;;;;;;5.95;61.91;97963.03;5012567;28;20070;-81
2024/01/30 00:13:13;;;;;;;18.42;11.93;;;;;;;5.93;62.04;97967.47;5012157;28;20148;-80
2024/01/30 00:15:41;;;;;;;16.25;11.93;;;;;;;5.90;62.17;97959.91;5012342;28;20081;-81
2024/01/30 00:18:08;;;;;;;17.77;11.80;;;;;;;5.87;62.38;97971.34;5012006;28;20503;-81
2024/01/30 00:20:37;;;;;;;15.82;11.15;;;;;;;5.87;63.05;97970.53;5012229;28;20056;-81
2024/01/30 00:23:05;;;;;;;18.52;12.50;;;;;;;5.85;62.46;97965.44;5012491;28;20108;-81
2024/01/30 00:25:33;;;;;;;18.90;12.75;;;;;;;5.86;62.69;97977.47;5016287;28;20053;-81
2024/01/30 00:28:01;;;;;;;17.23;11.90;;;;;;;5.84;62.41;97968.16;5016361;28;20141;-81
2024/01/30 00:30:28;;;;;;;15.15;11.88;;;;;;;5.84;63.01;97970.75;5016151;28;20104;-80
2024/01/30 00:32:56;;;;;;;18.08;12.20;;;;;;;5.84;62.58;97974.19;5022475;28;20109;-80
2024/01/30 00:35:23;;;;;;;18.08;11.85;;;;;;;5.85;62.69;97967.22;5031765;28;20050;-81
2024/01/30 00:37:53;;;;;;;17.15;11.98;;;;;;;5.86;62.50;97969.72;5030146;28;20046;-81
2024/01/30 00:40:20;;;;;;;18.13;12.93;;;;;;;5.87;62.41;97973.13;5017076;28;20068;-81
2024/01/30 00:42:48;;;;;;;22.35;12.93;;;;;;;5.87;62.26;97967.94;5016686;28;20408;-80
2024/01/30 00:45:16;;;;;;;17.67;12.50;;;;;;;5.89;61.96;97968.63;5016325;28;20642;-81
2024/01/30 00:47:43;;;;;;;14.23;10.75;;;;;;;5.90;62.30;97973.72;5015972;28;20058;-81
2024/01/30 00:50:12;;;;;;;15.27;10.95;;;;;;;5.90;61.92;97985.81;5016013;28;20050;-81
2024/01/30 00:52:41;;;;;;;15.27;12.18;;;;;;;5.89;62.17;97979.81;5015750;28;20137;-81
2024/01/30 00:55:10;;;;;;;16.25;11.75;;;;;;;5.88;61.98;97977.34;5015676;28;20089;-81
2024/01/30 00:57:37;;;;;;;16.67;11.70;;;;;;;5.88;63.52;97982.50;5027149;28;20545;-81
2024/01/30 01:00:08;;;;;;;17.33;12.57;;;;;;;5.91;63.23;97984.88;5017071;28;20042;-81
2024/01/30 01:02:35;;;;;;;17.92;12.10;;;;;;;5.88;62.45;97980.78;5015552;28;20057;-81
2024/01/30 01:05:04;;;;;;;18.50;12.98;;;;;;;5.84;61.90;97981.09;5015592;28;20060;-80
2024/01/30 01:07:32;;;;;;;15.48;11.73;;;;;;;5.81;62.96;97979.56;5015728;28;20141;-81
2024/01/30 01:09:59;;;;;;;16.52;12.15;;;;;;;5.80;62.74;97984.88;5015256;28;20054;-81
2024/01/30 01:12:28;;;;;;;16.73;12.50;;;;;;;5.75;62.10;97982.63;5015282;28;20056;-81
2024/01/30 01:14:56;;;;;;;18.92;12.68;;;;;;;5.70;62.29;97985.56;5014999;28;20079;-81
2024/01/30 01:17:23;;;;;;;17.05;12.23;;;;;;;5.68;62.54;97987.44;5015542;28;20052;-81
2024/01/30 01:19:51;;;;;;;20.48;13.10;;;;;;;5.66;62.52;97991.09;5015257;28;20470;-80
2024/01/30 01:22:18;;;;;;;15.85;11.95;;;;;;;5.64;62.25;97986.06;5015276;28;20052;-81
2024/01/30 01:24:46;;;;;;;17.45;11.80;;;;;;;5.61;62.43;97983.69;5015093;28;20053;-80
2024/01/30 01:27:13;;;;;;;14.15;10.90;;;;;;;5.57;62.12;97985.69;5015167;28;20132;-80
2024/01/30 01:29:43;;;;;;;15.45;11.18;;;;;;;5.56;64.66;97985.81;5015017;28;20419;-81
2024/01/30 01:32:10;;;;;;;14.35;11.35;;;;;;;5.56;62.99;97975.47;5014906;28;20594;-80
2024/01/30 01:34:38;;;;;;;16.70;11.90;;;;;;;5.53;62.82;97984.28;5014913;28;20149;-80
2024/01/30 01:37:07;;;;;;;14.35;11.55;;;;;;;5.49;62.74;97982.88;5014810;28;20137;-81
2024/01/30 01:39:35;;;;;;;13.80;10.50;;;;;;;5.47;62.50;97979.56;5014842;28;20052;-81
2024/01/30 01:42:02;;;;;;;15.27;10.20;;;;;;;5.46;62.89;97974.50;5014497;28;20081;-80
2024/01/30 01:44:30;;;;;;;15.52;10.82;;;;;;;5.46;62.62;97977.09;5014808;28;20050;-81
2024/01/30 01:46:59;;;;;;;12.93;10.43;;;;;;;5.46;62.60;97982.25;5014811;28;20496;-81
2024/01/30 01:49:29;;;;;;;13.25;10.57;;;;;;;5.44;62.93;97978.97;5014786;28;20084;-80
2024/01/30 01:51:58;;;;;;;17.58;12.23;;;;;;;5.43;62.73;97979.91;5014673;28;20049;-81
2024/01/30 01:54:29;;;;;;;14.60;10.70;;;;;;;5.42;63.00;97981.66;5014148;28;20053;-80
2024/01/30 01:56:56;;;;;;;12.63;10.82;;;;;;;5.43;63.56;97985.09;5015081;28;20418;-81
2024/01/30 01:59:25;;;;;;;16.70;11.45;;;;;;;5.45;63.73;97980.63;5014558;28;20050;-81
2024/01/30 02:01:54;;;;;;;17.83;12.45;;;;;;;5.44;63.14;97981.53;5014351;28;20046;-80
2024/01/30 02:04:23;;;;;;;15.80;12.07;;;;;;;5.42;63.13;97979.06;5015951;28;20064;-81
2024/01/30 02:06:51;;;;;;;16.52;11.00;;;;;;;5.43;64.49;97975.56;5014249;28;20042;-80
2024/01/30 02:09:18;;;;;;;19.77;11.25;;;;;;;5.46;63.59;97979.66;5013994;28;20054;-81
2024/01/30 02:11:46;;;;;;;13.57;10.23;;;;;;;5.44;63.09;97973.78;5014461;28;20052;-80
2024/01/30 02:14:13;;;;;;;15.60;10.80;;;;;;;5.43;63.82;97977.31;5014235;28;20050;-80
2024/01/30 02:16:41;;;;;;;14.57;10.57;;;;;;;5.45;63.56;97975.44;5014024;28;20423;-81
2024/01/30 02:19:09;;;;;;;18.17;10.85;;;;;;;5.44;64.29;97971.19;5013950;28;20078;-80
2024/01/30 02:21:38;;;;;;;12.90;10.40;;;;;;;5.45;65.05;97978.03;5013924;28;20050;-80
2024/01/30 02:24:06;;;;;;;16.30;10.57;;;;;;;5.46;65.36;97979.66;5013906;28;20054;-80
2024/01/30 02:26:33;;;;;;;14.85;11.25;;;;;;;5.51;65.72;97975.81;5014247;28;20140;-78
2024/01/30 02:29:00;;;;;;;14.25;10.82;;;;;;;5.57;65.83;97979.69;5013985;28;20300;-78
2024/01/30 02:31:28;;;;;;;16.23;11.70;;;;;;;5.60;65.13;97978.63;5014063;28;20092;-78
2024/01/30 02:33:55;;;;;;;15.73;11.75;;;;;;;5.56;65.18;97978.84;5014126;28;20136;-78
2024/01/30 02:36:23;;;;;;;15.82;12.20;;;;;;;5.53;65.95;97983.44;5014372;28;20133;-80
2024/01/30 02:38:52;;;;;;;16.13;11.63;;;;;;;5.46;64.44;97987.44;5013965;28;20046;-81
2024/01/30 02:41:19;;;;;;;19.08;12.13;;;;;;;5.41;64.15;97984.38;5013747;28;20046;-81
2024/01/30 02:43:47;;;;;;;17.58;11.45;;;;;;;5.36;64.01;97977.78;5013480;28;20049;-81
2024/01/30 02:46:14;;;;;;;16.38;12.20;;;;;;;5.33;63.87;97978.00;5012947;28;20053;-81
2024/01/30 02:48:42;;;;;;;19.30;13.07;;;;;;;5.27;63.68;97973.31;5013383;28;20100;-80
2024/01/30 02:51:09;;;;;;;19.33;13.57;;;;;;;5.22;63.83;97979.75;5013553;28;20104;-81
2024/01/30 02:53:37;;;;;;;16.77;11.88;;;;;;;5.16;63.61;97975.88;5013569;28;20053;-80
2024/01/30 02:56:09;;;;;;;17.20;12.80;;;;;;;5.11;63.60;97973.59;5013425;28;20471;-81
2024/01/30 02:58:37;;;;;;;17.98;13.52;;;;;;;5.04;63.24;97972.41;5013465;28;20080;-80
2024/01/30 03:01:04;;;;;;;17.42;12.52;;;;;;;4.99;64.07;97978.88;5013322;28;20136;-80
2024/01/30 03:03:34;;;;;;;14.95;11.90;;;;;;;4.94;64.03;97980.03;5012994;28;20462;-80
2024/01/30 03:06:01;;;;;;;19.38;13.20;;;;;;;4.88;64.23;97983.06;5013286;28;20060;-80
2024/01/30 03:08:29;;;;;;;18.50;13.45;;;;;;;4.80;63.89;97974.22;5013360;28;20310;-78
2024/01/30 03:10:56;;;;;;;17.65;13.18;;;;;;;4.75;64.12;97971.97;5023385;23;20424;-79
2024/01/30 03:13:25;;;;;;;16.52;12.10;;;;;;;4.69;64.33;97977.56;4994945;28;20114;-79
2024/01/30 03:15:53;;;;;;;19.38;12.80;;;;;;;4.62;64.20;97971.19;4995160;28;20419;-79
2024/01/30 03:18:21;;;;;;;18.40;13.80;;;;;;;4.59;64.90;97976.56;4995713;28;20128;-79
2024/01/30 03:20:49;;;;;;;21.13;13.25;;;;;;;4.59;64.66;97974.00;4994576;28;20524;-79
2024/01/30 03:23:16;;;;;;;19.42;12.68;;;;;;;4.57;64.46;97973.28;4994850;28;20085;-79
2024/01/30 03:25:44;;;;;;;18.80;14.10;;;;;;;4.53;64.52;97973.50;4994864;28;20056;-79
2024/01/30 03:28:11;;;;;;;15.38;11.68;;;;;;;4.49;64.38;97971.25;4994710;28;20129;-78
2024/01/30 03:30:40;;;;;;;16.20;12.52;;;;;;;4.45;65.12;97969.81;4994670;28;20460;-78
2024/01/30 03:33:08;;;;;;;14.60;11.55;;;;;;;4.48;65.51;97974.75;4994043;28;20066;-79
2024/01/30 03:35:35;;;;;;;19.30;12.55;;;;;;;4.49;65.21;97977.25;4994683;28;20082;-78
2024/01/30 03:38:03;;;;;;;20.58;12.48;;;;;;;4.50;64.89;97968.56;4994411;28;20132;-79
2024/01/30 03:40:31;;;;;;;16.67;12.10;;;;;;;4.50;64.95;97980.63;4994510;28;20052;-79
2024/01/30 03:42:58;;;;;;;19.67;12.15;;;;;;;4.49;64.76;97982.41;4993967;28;20054;-79
2024/01/30 03:45:26;;;;;;;14.82;11.35;;;;;;;4.48;64.76;97980.78;4995183;28;20046;-79
2024/01/30 03:47:55;;;;;;;16.70;11.77;;;;;;;4.46;65.08;97977.47;4994815;28;20046;-79
2024/01/30 03:50:23;;;;;;;17.48;11.80;;;;;;;4.48;64.82;97977.34;5004717;28;20046;-79
2024/01/30 03:52:50;;;;;;;17.42;11.93;;;;;;;4.47;65.38;97973.94;5016301;28;20112;-79
2024/01/30 03:55:18;;;;;;;16.15;11.45;;;;;;;4.45;64.72;97972.41;5015930;28;20113;-79
2024/01/30 03:57:46;;;;;;;15.93;12.50;;;;;;;4.40;64.61;97969.34;5015526;28;20053;-79
2024/01/30 04:00:15;;;;;;;17.73;11.70;;;;;;;4.35;64.93;97974.81;5009866;28;20111;-79
2024/01/30 04:02:43;;;;;;;17.48;12.65;;;;;;;4.34;65.51;97975.75;5008780;28;20077;-79
2024/01/30 04:05:12;;;;;;;18.48;11.85;;;;;;;4.33;65.21;97976.69;5008535;28;20129;-79
2024/01/30 04:07:40;;;;;;;17.73;12.38;;;;;;;4.32;65.43;97985.38;5004424;28;20057;-79
2024/01/30 04:10:08;;;;;;;14.63;11.07;;;;;;;4.32;66.34;97982.78;4995620;28;20085;-78
2024/01/30 04:12:37;;;;;;;15.98;10.98;;;;;;;4.33;65.88;97982.69;4994916;28;20057;-79
2024/01/30 04:15:05;;;;;;;14.00;10.38;;;;;;;4.38;67.62;97990.09;4995363;28;20054;-78
2024/01/30 04:17:33;;;;;;;15.20;11.43;;;;;;;4.41;66.20;97987.28;4994598;28;20430;-79
2024/01/30 04:20:01;;;;;;;14.77;11.93;;;;;;;4.40;65.93;97998.56;4994784;28;20401;-78
2024/01/30 04:22:30;;;;;;;18.27;13.10;;;;;;;4.36;65.93;97997.13;4994686;28;20050;-78
2024/01/30 04:24:58;;;;;;;17.48;12.40;;;;;;;4.35;66.06;97992.88;4994603;28;20105;-79
2024/01/30 04:27:25;;;;;;;16.83;12.80;;;;;;;4.31;65.73;97997.47;4994473;28;20451;-78
2024/01/30 04:29:53;;;;;;;20.17;14.57;;;;;;;4.29;65.32;97995.91;4994452;28;20047;-78
2024/01/30 04:32:21;;;;;;;19.52;13.68;;;;;;;4.17;65.43;97995.00;4994381;28;20467;-79
2024/01/30 04:34:48;;;;;;;25.17;15.10;;;;;;;4.10;65.75;97998.97;4994151;28;20051;-79
2024/01/30 04:37:16;;;;;;;26.52;15.45;;;;;;;4.03;65.57;97998.56;4994505;28;20069;-78
2024/01/30 04:39:45;;;;;;;20.55;14.25;;;;;;;3.94;66.45;97990.63;4994957;28;20101;-78
2024/01/30 04:42:13;;;;;;;19.08;13.65;;;;;;;3.90;65.93;97995.19;4994350;28;20159;-79
2024/01/30 04:44:40;;;;;;;18.42;13.38;;;;;;;3.85;66.34;97992.09;4994260;28;20046;-78
2024/01/30 04:47:08;;;;;;;18.20;13.75;;;;;;;3.75;66.32;97991.06;4994827;28;20069;-79
2024/01/30 04:49:36;;;;;;;19.90;14.15;;;;;;;3.67;66.69;98000.16;4994160;28;20051;-79
2024/01/30 04:52:04;;;;;;;19.10;13.57;;;;;;;3.57;66.78;97993.97;4994500;28;20046;-79
2024/01/30 04:54:32;;;;;;;19.40;13.30;;;;;;;3.50;67.32;98000.47;4994125;28;20508;-78
2024/01/30 04:57:01;;;;;;;21.13;14.27;;;;;;;3.47;67.33;98001.47;4994506;28;20060;-79
2024/01/30 04:59:28;;;;;;;20.95;14.07;;;;;;;3.43;67.32;97996.63;4985978;28;20047;-78
2024/01/30 05:01:56;;;;;;;17.08;13.38;;;;;;;3.41;67.45;98004.50;4977516;28;20047;-80
2024/01/30 05:04:23;;;;;;;19.25;13.18;;;;;;;3.39;67.51;98001.19;4976930;28;20053;-78
2024/01/30 05:06:51;;;;;;;19.00;12.60;;;;;;;3.36;67.46;98000.56;4991696;28;20097;-77
2024/01/30 05:09:19;;;;;;;20.67;14.35;;;;;;;3.34;67.60;97999.81;4987188;28;20054;-81
2024/01/30 05:11:47;;;;;;;20.40;12.82;;;;;;;3.33;68.04;98000.78;4987783;28;20042;-81
2024/01/30 05:14:16;;;;;;;20.80;13.27;;;;;;;3.33;68.16;98011.09;4987035;28;20130;-82
2024/01/30 05:16:46;;;;;;;19.40;13.15;;;;;;;3.33;67.87;98008.50;4988186;28;20077;-79
2024/01/30 05:19:14;;;;;;;18.17;13.45;;;;;;;3.33;67.91;98008.50;4978051;28;20073;-80
2024/01/30 05:35:27;;;;;;;19.13;12.97;;;;;;;3.18;68.27;98013.72;5048037;23;20045;-81
2024/01/30 05:37:54;;;;;;;24.20;14.23;;;;;;;3.14;67.64;98012.28;5038672;28;20030;-81
2024/01/30 05:40:22;;;;;;;17.60;12.48;;;;;;;3.09;67.77;98010.00;5038248;28;20080;-81
2024/01/30 05:42:50;;;;;;;19.95;13.00;;;;;;;3.04;68.20;98016.38;5026450;28;20057;-81
2024/01/30 05:45:18;;;;;;;19.60;12.45;;;;;;;3.01;68.32;98006.28;5025531;28;20081;-81
2024/01/30 05:47:45;;;;;;;21.13;14.15;;;;;;;3.04;67.98;98011.22;5023886;28;20141;-81
2024/01/30 05:50:13;;;;;;;17.95;13.10;;;;;;;3.04;68.19;98014.66;5024042;28;20565;-81
2024/01/30 05:52:42;;;;;;;19.05;12.52;;;;;;;3.06;68.43;98014.53;5023405;28;20084;-81
2024/01/30 05:55:11;;;;;;;20.23;13.25;;;;;;;3.05;67.88;98008.53;5023053;28;20061;-81
2024/01/30 05:57:39;;;;;;;20.23;11.75;;;;;;;3.07;68.44;98011.03;5025637;28;20050;-80
2024/01/30 06:00:08;;;;;;;17.00;11.85;;;;;;;3.09;68.51;98016.91;5027716;28;20077;-81
2024/01/30 06:02:36;;;;;;;18.35;11.95;;;;;;;3.13;68.30;98020.94;5027559;28;20057;-81
2024/01/30 06:05:04;;;;;;;18.38;10.93;;;;;;;3.15;67.90;98021.69;5026242;28;20114;-81
2024/01/30 06:07:32;;;;;;;17.55;11.80;;;;;;;3.16;67.89;98013.00;5026306;28;20133;-81
2024/01/30 06:10:06;;;;;;;15.18;10.70;;;;;;;3.17;68.10;98012.09;5026196;28;20152;-81
2024/01/30 06:12:34;;;;;;;15.77;11.52;;;;;;;3.21;68.20;98004.97;5025768;28;20400;-81
2024/01/30 06:15:02;;;;;;;16.40;11.25;;;;;;;3.24;67.62;98003.03;5024636;28;20078;-80
2024/01/30 06:17:29;;;;;;;15.35;11.25;;;;;;;3.27;67.46;98004.56;5021518;28;20085;-81
2024/01/30 06:19:57;;;;;;;16.58;10.57;;;;;;;3.29;67.46;98008.69;5020381;28;20046;-81
2024/01/30 06:22:25;;;;;;;15.52;10.77;;;;;;;3.29;67.66;98011.28;5020478;28;20046;-81
2024/01/30 06:24:52;;;;;;;18.00;11.70;;;;;;;3.29;67.40;98016.44;5020595;28;20089;-81
2024/01/30 06:27:22;;;;;;;16.65;11.18;;;;;;;3.29;67.49;98018.19;5020867;28;20500;-81
2024/01/30 06:29:49;;;;;;;16.10;10.80;;;;;;;3.32;67.86;98015.41;5020828;28;20089;-81
2024/01/30 06:32:17;;;;;;;15.63;11.27;;;;;;;3.32;67.53;98014.56;5020934;28;20050;-81
2024/01/30 06:34:45;;;;;;;16.38;11.70;;;;;;;3.32;67.67;98019.72;5019396;28;20108;-81
2024/01/30 06:37:13;;;;;;;18.40;12.23;;;;;;;3.30;67.54;98009.50;5019256;28;20053;-81
2024/01/30 06:39:40;;;;;;;19.30;11.18;;;;;;;3.30;67.31;98018.09;5019550;28;20045;-81
2024/01/30 06:42:08;;;;;;;18.60;11.32;;;;;;;3.32;67.70;98014.56;5018690;28;20056;-81
2024/01/30 06:44:37;;;;;;;19.63;11.35;;;;;;;3.37;67.78;98009.94;5019535;28;20106;-80
2024/01/30 06:47:05;;;;;;;15.95;11.43;;;;;;;3.41;67.55;98019.13;5019917;28;20073;-81
2024/01/30 06:49:32;;;;;;;15.90;11.88;;;;;;;3.45;67.62;98021.38;5019483;28;20442;-81
2024/01/30 06:52:00;;;;;;;17.95;12.45;;;;;;;3.47;67.92;98016.13;5020804;28;20057;-81
2024/01/30 06:54:28;;;;;;;18.73;11.60;;;;;;;3.50;67.62;98015.94;5019866;28;20050;-81
2024/01/30 06:56:55;;;;;;;14.82;10.98;;;;;;;3.50;67.16;98016.78;5019436;28;20077;-81
2024/01/30 06:59:23;;;;;;;17.20;11.98;;;;;;;3.48;67.41;98016.03;5018618;28;20495;-81
2024/01/30 07:01:52;;;;;;;17.20;11.50;;;;;;;3.49;67.45;98016.88;5018815;28;20068;-81
2024/01/30 07:04:20;;;;;;;20.58;11.93;;;;;;;3.51;67.39;98020.97;5018301;28;20042;-81
2024/01/30 07:06:47;;;;;;;18.10;12.23;;;;;;;3.54;67.34;98025.09;5018884;28;20078;-81
2024/01/30 07:09:15;;;;;;;17.00;11.23;;;;;;;3.56;67.31;98020.66;5017980;28;20049;-81
2024/01/30 07:11:43;;;;;;;17.77;11.90;;;;;;;3.60;67.43;98024.69;5018242;28;20077;-81
2024/01/30 07:14:10;;;;;;;15.18;11.35;;;;;;;3.68;67.86;98029.38;5017757;28;20049;-81
2024/01/30 07:16:38;;;;;;;19.52;12.80;;;;;;;3.82;68.65;98023.25;5017805;28;20405;-81
2024/01/30 07:19:09;;;;;;;17.48;12.20;;;;;;;3.91;68.04;98027.78;5018055;28;20109;-81
2024/01/30 07:21:37;;;;;;;21.17;12.15;;;;;;;3.92;67.47;98026.88;5018146;28;20129;-81
2024/01/30 07:24:04;;;;;;;22.23;13.98;;;;;;;3.94;67.13;98032.75;5021904;28;20050;-80
2024/01/30 07:26:32;;;;;;;18.75;12.25;;;;;;;3.96;66.94;98036.06;5035513;28;20046;-81
2024/01/30 07:29:00;;;;;;;18.30;13.07;;;;;;;3.95;66.52;98036.97;5020911;28;20046;-81
2024/01/30 07:31:27;;;;;;;20.40;12.35;;;;;;;3.98;66.76;98036.78;5018391;28;20061;-81
2024/01/30 07:34:00;;;;;;;16.45;10.95;;;;;;;4.02;66.55;98038.19;5019725;28;20114;-81
2024/01/30 07:36:29;;;;;;;16.42;11.05;;;;;;;4.09;66.32;98041.22;5021421;28;20053;-81
2024/01/30 07:38:57;;;;;;;18.65;10.25;;;;;;;4.11;66.33;98047.94;5020965;28;20060;-81
2024/01/30 07:41:25;;;;;;;13.82;8.98;;;;;;;4.12;65.93;98043.59;5020821;28;20113;-81
2024/01/30 07:43:53;;;;;;;12.30;9.25;;;;;;;4.13;66.04;98043.47;5019608;28;20053;-81
2024/01/30 07:46:21;;;;;;;16.40;10.07;;;;;;;4.17;65.93;98045.84;5019745;28;20084;-81
2024/01/30 07:48:48;;;;;;;14.95;9.40;;;;;;;4.22;65.43;98052.34;5019674;28;20042;-80
2024/01/30 07:51:19;;;;;;;13.63;9.45;;;;;;;4.27;66.32;98049.44;5019211;28;20053;-81
2024/01/30 07:53:48;;;;;;;12.57;9.57;;;;;;;4.34;66.63;98051.47;5020039;28;20416;-81
2024/01/30 07:56:16;;;;;;;12.55;9.55;;;;;;;4.43;66.19;98052.59;5019822;28;20440;-81
2024/01/30 07:58:44;;;;;;;13.63;9.65;;;;;;;4.47;65.42;98055.81;5019349;28;20050;-81
2024/01/30 08:01:12;;;;;;;14.25;9.88;;;;;;;4.49;65.74;98054.75;5018641;28;20093;-81
2024/01/30 08:03:41;;;;;;;11.60;8.50;;;;;;;4.51;65.17;98050.31;5018507;28;20046;-81
2024/01/30 08:06:10;;;;;;;15.65;10.57;;;;;;;4.54;65.36;98047.50;5018116;28;20118;-81
2024/01/30 08:08:38;;;;;;;12.60;9.60;;;;;;;4.59;65.44;98048.94;5019301;28;20137;-81
2024/01/30 08:11:07;;;;;;;13.80;9.27;;;;;;;4.65;64.93;98051.91;5018936;28;20046;-81
2024/01/30 08:13:35;;;;;;;15.80;9.50;;;;;;;4.73;64.96;98052.19;5018911;28;20046;-81
2024/01/30 08:16:02;;;;;;;14.77;8.95;;;;;;;4.78;64.90;98046.69;5019326;28;20053;-81
2024/01/30 08:18:30;;;;;;;13.23;9.23;;;;;;;4.84;64.78;98055.78;5019208;28;20128;-81
2024/01/30 08:20:58;;;;;;;20.50;9.23;;;;;;;4.91;64.61;98054.41;5019217;28;20045;-81
2024/01/30 08:23:25;;;;;;;10.98;8.95;;;;;;;4.99;64.22;98041.75;5019309;28;20050;-81
2024/01/30 08:25:53;;;;;;;15.23;10.45;;;;;;;5.10;64.14;98049.56;5019374;28;20499;-81
2024/01/30 08:28:22;;;;;;;18.25;9.70;;;;;;;5.21;63.92;98041.00;5020033;28;20065;-81
2024/01/30 08:30:49;;;;;;;15.05;9.23;;;;;;;5.33;63.97;98044.44;5019906;28;20073;-81
2024/01/30 08:33:17;;;;;;;17.88;8.55;;;;;;;5.44;63.71;98051.41;5019891;28;20076;-81
2024/01/30 08:35:45;;;;;;;12.93;7.80;;;;;;;5.54;63.41;98047.22;5020434;28;20049;-81
2024/01/30 08:38:12;;;;;;;12.57;8.57;;;;;;;5.65;63.24;98039.47;5020022;28;20058;-81
2024/01/30 08:40:40;;;;;;;13.93;8.75;;;;;;;5.77;63.13;98046.31;5020970;28;20045;-81
2024/01/30 08:43:10;;;;;;;13.10;8.57;;;;;;;5.88;62.66;98045.50;5020866;28;20518;-81
2024/01/30 08:45:39;;;;;;;14.60;9.40;;;;;;;6.01;62.30;98042.00;5024163;28;20068;-81
2024/01/30 08:48:07;;;;;;;12.93;8.38;;;;;;;6.10;62.27;98044.72;5025024;28;20050;-81
2024/01/30 08:50:35;;;;;;;11.10;8.60;;;;;;;6.18;62.98;98037.16;5024930;28;20061;-81
2024/01/30 08:53:03;;;;;;;13.75;8.55;;;;;;;6.29;61.88;98038.09;5024149;28;20326;-81
2024/01/30 08:55:31;;;;;;;14.77;9.13;;;;;;;6.36;61.75;98039.28;5024772;28;20109;-81
2024/01/30 08:57:59;;;;;;;15.05;8.57;;;;;;;6.43;61.36;98037.03;5024756;28;20049;-81
2024/01/30 09:00:27;;;;;;;12.57;8.85;;;;;;;6.47;61.04;98038.44;5024698;28;20104;-81
2024/01/30 09:02:55;;;;;;;14.40;8.80;;;;;;;6.52;60.42;98039.72;5024369;28;20431;-81
2024/01/30 09:05:23;;;;;;;13.35;7.75;;;;;;;6.56;60.56;98035.97;5024587;28;20122;-81
2024/01/30 09:07:51;;;;;;;15.73;8.13;;;;;;;6.63;60.31;98038.88;5024239;28;20042;-81
2024/01/30 09:10:18;;;;;;;12.88;7.72;;;;;;;6.71;60.50;98043.44;5045420;23;20112;-77
2024/01/30 09:12:48;;;;;;;11.40;8.18;;;;;;;6.79;60.39;98052.28;5015283;28;20565;-77
2024/01/30 09:15:16;;;;;;;11.82;8.55;;;;;;;6.87;60.12;98049.09;5015117;28;20424;-78
2024/01/30 09:17:44;;;;;;;12.68;8.77;;;;;;;6.94;59.78;98054.59;5015438;28;20096;-77
2024/01/30 09:20:13;;;;;;;12.32;8.60;;;;;;;7.03;59.54;98053.84;5015467;28;20053;-77
2024/01/30 09:22:40;;;;;;;9.82;7.75;;;;;;;7.16;59.60;98048.50;5015596;28;20057;-77
2024/01/30 09:25:08;;;;;;;12.18;8.75;;;;;;;7.30;59.23;98052.56;5015347;28;20510;-77
2024/01/30 09:27:36;;;;;;;11.63;8.60;;;;;;;7.45;58.94;98048.72;5015724;28;20507;-78
2024/01/30 09:30:04;;;;;;;13.27;8.23;;;;;;;7.62;58.97;98052.50;5015273;28;20085;-78
2024/01/30 09:32:32;;;;;;;15.70;8.98;;;;;;;7.79;58.47;98051.94;5014956;28;20127;-77
2024/01/30 09:35:00;;;;;;;13.07;8.82;;;;;;;7.95;58.00;98053.25;5015102;28;20042;-78
2024/01/30 09:37:29;;;;;;;12.68;8.75;;;;;;;8.08;57.99;98051.25;5016122;28;20054;-77
2024/01/30 09:39:56;;;;;;;13.27;8.50;;;;;;;8.26;58.60;98054.06;5015275;28;20064;-78
2024/01/30 09:42:33;;;;;;;10.70;7.70;;;;;;;8.45;57.78;98051.56;5015037;28;20100;-78
2024/01/30 09:45:02;;;;;;;16.10;9.23;;;;;;;8.68;57.40;98061.75;5014840;28;20140;-78
2024/01/30 09:47:32;;;;;;;14.40;9.23;;;;;;;8.94;56.97;98054.25;5015075;28;20112;-78
2024/01/30 09:50:02;;;;;;;18.35;10.80;;;;;;;9.24;56.58;98049.88;5014923;28;20060;-78
2024/01/30 09:52:31;;;;;;;14.88;10.30;;;;;;;9.56;55.17;98060.00;5015155;28;20077;-77
2024/01/30 09:55:00;;;;;;;16.80;10.32;;;;;;;9.84;55.12;98053.09;5014986;28;20057;-78
2024/01/30 09:57:28;;;;;;;15.05;9.93;;;;;;;10.14;54.02;98053.81;5015175;28;20046;-78
2024/01/30 09:59:56;;;;;;;16.40;10.32;;;;;;;10.43;53.50;98050.28;5015081;28;20280;-80
2024/01/30 10:02:24;;;;;;;16.92;9.82;;;;;;;10.68;52.50;98047.00;5014610;28;20049;-80
2024/01/30 10:04:52;;;;;;;11.50;8.48;;;;;;;10.90;52.32;98055.38;5014443;28;20048;-80
2024/01/30 10:07:20;;;;;;;18.25;9.85;;;;;;;11.10;51.53;98056.88;5014756;28;20054;-80
2024/01/30 10:09:50;;;;;;;11.60;8.10;;;;;;;11.33;52.28;98051.19;5014131;28;20177;-80
2024/01/30 10:12:17;;;;;;;11.18;8.45;;;;;;;11.55;50.63;98049.91;5014369;28;20136;-80
2024/01/30 10:14:45;;;;;;;14.25;8.20;;;;;;;11.68;49.60;98050.31;5027636;28;20518;-78
2024/01/30 10:17:13;;;;;;;13.10;8.05;;;;;;;11.83;48.74;98042.75;5015936;28;20060;-78
2024/01/30 10:19:54;;;;;;;12.70;8.50;;;;;;;12.05;48.71;98040.63;5015632;28;20447;-78
2024/01/30 10:22:23;;;;;;;11.75;7.65;;;;;;;12.28;49.84;98046.09;5015088;28;20057;-78
2024/01/30 10:24:52;;;;;;;12.10;8.75;;;;;;;12.49;47.56;98043.91;5014408;28;20046;-79
2024/01/30 10:27:26;;;;;;;10.45;8.00;;;;;;;12.68;46.84;98037.59;5014510;28;20054;-79
2024/01/30 10:29:53;;;;;;;9.90;7.20;;;;;;;12.85;47.31;98037.63;5014630;28;20129;-80
2024/01/30 10:32:21;;;;;;;12.35;8.43;;;;;;;12.99;46.39;98035.19;5014149;28;20135;-80
2024/01/30 10:34:48;;;;;;;10.00;8.65;;;;;;;13.11;46.08;98035.69;5017697;28;20052;-80
2024/01/30 10:37:17;;;;;;;12.18;9.18;;;;;;;13.24;45.35;98042.25;5030624;28;20064;-80
2024/01/30 10:39:46;;;;;;;20.55;11.05;;;;;;;13.32;45.12;98034.44;5029811;28;20065;-80
2024/01/30 10:42:18;;;;;;;19.75;11.23;;;;;;;13.45;44.91;98032.13;5015149;28;20057;-79
2024/01/30 10:44:57;;;;;;;12.77;9.63;;;;;;;13.66;44.43;98036.03;5014414;28;20062;-80
2024/01/30 10:47:28;;;;;;;18.52;9.98;;;;;;;13.91;43.90;98032.41;5014173;28;20058;-80
2024/01/30 10:49:56;;;;;;;15.55;11.38;;;;;;;14.19;45.01;98030.19;5014128;28;20553;-80
2024/01/30 10:52:26;;;;;;;15.95;11.63;;;;;;;14.45;43.81;98026.47;5013592;28;20137;-80
2024/01/30 10:54:55;;;;;;;13.63;11.02;;;;;;;14.69;42.79;98022.91;5013655;28;20050;-80
2024/01/30 10:57:25;;;;;;;20.27;10.25;;;;;;;14.94;42.24;98025.41;5013688;28;20065;-80
2024/01/30 10:59:56;;;;;;;14.50;8.90;;;;;;;15.14;41.67;98029.22;5013944;28;20045;-80
2024/01/30 11:02:25;;;;;;;12.20;7.60;;;;;;;15.29;43.22;98023.19;5013616;28;20404;-80
2024/01/30 11:04:57;;;;;;;11.60;8.48;;;;;;;15.30;42.00;98022.19;5013698;28;20056;-80
2024/01/30 11:07:27;;;;;;;12.07;8.48;;;;;;;15.33;41.78;98019.22;5013322;28;20569;-80
2024/01/30 11:10:01;;;;;;;13.70;7.85;;;;;;;15.32;41.33;98018.38;5013736;28;20531;-80
2024/01/30 11:12:33;;;;;;;11.40;7.70;;;;;;;15.37;43.50;98017.84;5013552;28;20053;-80
2024/01/30 11:15:08;;;;;;;8.53;7.60;;;;;;;15.42;41.07;98020.78;5013894;28;20053;-80
2024/01/30 11:17:44;;;;;;;8.30;6.50;;;;;;;15.48;38.78;98020.09;5013323;28;20060;-80
2024/01/30 11:20:14;;;;;;;12.13;6.97;;;;;;;15.55;39.00;98014.94;5014088;28;20045;-80
2024/01/30 11:22:43;;;;;;;10.98;7.93;;;;;;;15.59;38.66;98017.03;5013172;28;20503;-80
2024/01/30 11:25:15;;;;;;;15.10;8.30;;;;;;;15.58;38.18;98018.00;5012912;28;20081;-80
2024/01/30 11:27:45;;;;;;;9.77;7.55;;;;;;;15.61;40.06;98017.66;5013359;28;20061;-80
2024/01/30 11:30:22;;;;;;;11.85;6.35;;;;;;;15.68;40.64;98020.38;5013208;28;20522;-80
2024/01/30 11:32:59;;;;;;;7.97;4.72;;;;;;;15.79;37.07;98006.81;5013069;28;20050;-80
2024/01/30 11:35:30;;;;;;;5.20;3.45;;;;;;;15.97;37.52;98011.72;5013104;28;20423;-80
2024/01/30 11:37:59;;;;;;;4.20;2.70;;;;;;;16.14;36.51;98001.84;5013107;28;20054;-80
2024/01/30 11:40:27;;;;;;;3.25;2.20;;;;;;;16.31;36.96;98006.88;5013198;28;20349;-80
2024/01/30 11:42:57;;;;;;;2.35;2.15;;;;;;;16.40;36.82;98008.44;5013132;28;20476;-80
2024/01/30 11:45:25;;;;;;;2.78;2.42;;;;;;;16.43;36.05;98006.25;5013097;28;20046;-81